createdAt,value
2022-10-26T00:01:15.751Z,15.40
2022-10-26T00:03:45.438Z,12.77
2022-10-26T00:06:19.297Z,17.67
2022-10-26T00:08:46.935Z,13.90
2022-10-26T00:11:15.191Z,13.53
2022-10-26T00:13:42.959Z,20.93
2022-10-26T00:16:19.650Z,11.70
2022-10-26T00:18:47.272Z,10.70
2022-10-26T00:21:14.477Z,14.30
2022-10-26T00:23:41.285Z,19.87
2022-10-26T00:26:08.295Z,12.90
2022-10-26T00:28:35.590Z,12.07
2022-10-26T00:31:04.124Z,13.17
2022-10-26T00:33:31.588Z,13.30
2022-10-26T00:35:58.872Z,12.60
2022-10-26T00:38:25.746Z,10.30
2022-10-26T00:40:52.593Z,14.83
2022-10-26T00:43:22.483Z,14.30
2022-10-26T00:45:51.128Z,15.27
2022-10-26T00:48:35.262Z,17.37
2022-10-26T00:51:07.668Z,16.70
2022-10-26T00:53:35.068Z,15.07
2022-10-26T00:56:02.377Z,13.47
2022-10-26T00:58:30.009Z,19.87
2022-10-26T01:00:57.164Z,18.37
2022-10-26T01:03:28.155Z,22.90
2022-10-26T01:05:57.509Z,14.97
2022-10-26T01:08:28.215Z,13.73
2022-10-26T01:10:57.307Z,19.50
2022-10-26T01:13:27.582Z,16.60
2022-10-26T01:16:06.699Z,28.80
2022-10-26T01:18:44.530Z,19.43
2022-10-26T01:21:21.840Z,21.73
2022-10-26T01:24:00.762Z,18.20
2022-10-26T01:26:27.542Z,18.40
2022-10-26T01:29:03.301Z,15.97
2022-10-26T01:31:41.194Z,22.40
2022-10-26T01:34:22.254Z,27.73
2022-10-26T01:36:58.594Z,18.07
2022-10-26T01:39:32.585Z,18.07
2022-10-26T01:42:01.579Z,21.40
2022-10-26T01:44:33.718Z,19.20
2022-10-26T01:47:02.665Z,15.43
2022-10-26T01:49:35.622Z,17.73
2022-10-26T01:52:02.498Z,18.00
2022-10-26T01:54:29.411Z,18.30
2022-10-26T01:57:02.053Z,20.23
2022-10-26T01:59:40.472Z,19.03
2022-10-26T02:02:26.782Z,16.87
2022-10-26T02:05:16.267Z,15.00
2022-10-26T02:07:58.140Z,15.27
2022-10-26T02:10:40.641Z,19.23
2022-10-26T02:13:34.771Z,15.90
2022-10-26T02:16:32.133Z,17.70
2022-10-26T02:19:21.179Z,13.50
2022-10-26T02:21:55.119Z,21.10
2022-10-26T02:24:23.432Z,16.43
2022-10-26T02:26:53.076Z,13.80
2022-10-26T02:29:21.263Z,23.63
2022-10-26T02:31:50.377Z,16.67
2022-10-26T02:34:21.966Z,20.00
2022-10-26T02:36:50.957Z,23.33
2022-10-26T02:39:19.393Z,16.80
2022-10-26T02:41:48.669Z,19.13
2022-10-26T02:44:24.681Z,20.37
2022-10-26T02:46:52.945Z,18.80
2022-10-26T02:49:20.362Z,18.40
2022-10-26T02:51:52.628Z,21.00
2022-10-26T02:54:29.705Z,22.90
2022-10-26T02:57:13.990Z,26.47
2022-10-26T02:59:43.932Z,16.70
2022-10-26T03:02:13.296Z,20.20
2022-10-26T03:04:40.087Z,25.33
2022-10-26T03:07:06.883Z,21.87
2022-10-26T03:09:33.755Z,20.93
2022-10-26T03:12:00.611Z,17.53
2022-10-26T03:14:27.402Z,18.73
2022-10-26T03:16:54.292Z,20.23
2022-10-26T03:19:21.102Z,18.50
2022-10-26T03:21:47.878Z,29.73
2022-10-26T03:24:14.694Z,18.87
2022-10-26T03:26:41.459Z,19.77
2022-10-26T03:29:09.025Z,16.30
2022-10-26T03:31:36.035Z,16.07
2022-10-26T03:34:02.861Z,21.93
2022-10-26T03:36:29.712Z,23.03
2022-10-26T03:38:56.550Z,23.13
2022-10-26T03:41:23.407Z,16.57
2022-10-26T03:43:50.246Z,23.43
2022-10-26T03:46:17.036Z,17.53
2022-10-26T03:48:43.876Z,18.80
2022-10-26T03:51:10.673Z,19.83
2022-10-26T03:53:37.684Z,25.17
2022-10-26T03:56:04.708Z,28.03
2022-10-26T03:58:31.480Z,24.63
2022-10-26T04:00:58.272Z,25.43
2022-10-26T04:03:25.091Z,26.73
2022-10-26T04:05:51.867Z,22.90
2022-10-26T04:08:18.983Z,21.40
2022-10-26T04:10:47.459Z,19.07
2022-10-26T04:13:14.312Z,26.33
2022-10-26T04:15:41.451Z,20.30
2022-10-26T04:18:09.849Z,26.67
2022-10-26T04:20:39.061Z,21.70
2022-10-26T04:23:06.933Z,22.53
2022-10-26T04:25:34.366Z,20.20
2022-10-26T04:28:02.634Z,20.40
2022-10-26T04:30:29.682Z,19.53
2022-10-26T04:32:56.721Z,18.37
2022-10-26T04:35:23.990Z,17.87
2022-10-26T04:37:50.827Z,23.73
2022-10-26T04:40:18.379Z,24.40
2022-10-26T04:42:47.135Z,22.83
2022-10-26T04:45:16.122Z,16.90
2022-10-26T04:47:43.546Z,26.83
2022-10-26T04:50:12.456Z,21.23
2022-10-26T04:52:39.965Z,20.50
2022-10-26T04:55:07.517Z,18.90
2022-10-26T04:57:35.213Z,23.97
2022-10-26T05:00:04.335Z,19.20
2022-10-26T05:02:31.219Z,22.37
2022-10-26T05:04:58.098Z,22.30
2022-10-26T05:07:25.001Z,25.57
2022-10-26T05:09:51.808Z,31.73
2022-10-26T05:12:18.716Z,18.50
2022-10-26T05:14:45.500Z,30.90
2022-10-26T05:17:12.334Z,22.13
2022-10-26T05:19:39.271Z,27.70
2022-10-26T05:22:06.246Z,30.93
2022-10-26T05:24:33.077Z,26.67
2022-10-26T05:27:00.088Z,26.77
2022-10-26T05:29:26.961Z,25.43
2022-10-26T05:31:53.754Z,35.67
2022-10-26T05:34:20.578Z,26.53
2022-10-26T05:36:47.402Z,28.83
2022-10-26T05:39:14.219Z,21.70
2022-10-26T05:41:41.069Z,28.97
2022-10-26T05:44:07.817Z,26.30
2022-10-26T05:46:34.618Z,23.43
2022-10-26T05:49:01.385Z,21.57
2022-10-26T05:51:28.147Z,23.27
2022-10-26T05:53:54.971Z,21.20
2022-10-26T05:56:35.663Z,23.53
2022-10-26T05:59:03.540Z,22.53
2022-10-26T06:01:44.178Z,25.27
2022-10-26T06:04:29.329Z,28.13
2022-10-26T06:06:57.452Z,29.90
2022-10-26T06:09:24.694Z,28.90
2022-10-26T06:11:51.819Z,28.37
2022-10-26T06:14:18.883Z,25.03
2022-10-26T06:16:45.619Z,27.10
2022-10-26T06:19:47.494Z,23.20
2022-10-26T06:22:46.675Z,27.43
2022-10-26T06:25:24.728Z,23.97
2022-10-26T06:28:18.696Z,25.20
2022-10-26T06:30:45.574Z,31.80
2022-10-26T06:33:29.168Z,24.93
2022-10-26T06:36:29.994Z,20.30
2022-10-26T06:39:07.588Z,19.10
2022-10-26T06:41:36.347Z,22.90
2022-10-26T06:44:04.765Z,19.80
2022-10-26T06:46:37.724Z,22.53
2022-10-26T06:49:38.069Z,19.83
2022-10-26T06:52:07.631Z,24.47
2022-10-26T06:54:37.120Z,24.13
2022-10-26T06:57:04.184Z,20.10
2022-10-26T06:59:38.943Z,22.00
2022-10-26T07:02:06.774Z,22.73
2022-10-26T07:04:33.890Z,20.03
2022-10-26T07:07:00.916Z,25.77
2022-10-26T07:09:27.787Z,22.60
2022-10-26T07:11:54.587Z,19.83
2022-10-26T07:14:21.409Z,21.27
2022-10-26T07:16:48.198Z,18.90
2022-10-26T07:19:15.048Z,20.47
2022-10-26T07:21:41.809Z,34.20
2022-10-26T07:24:08.903Z,18.60
2022-10-26T07:26:35.740Z,15.53
2022-10-26T07:29:02.662Z,27.40
2022-10-26T07:31:29.473Z,19.73
2022-10-26T07:33:56.327Z,20.13
2022-10-26T07:36:23.268Z,18.13
2022-10-26T07:38:54.034Z,17.10
2022-10-26T07:41:21.156Z,13.13
2022-10-26T07:43:50.803Z,20.20
2022-10-26T07:46:18.570Z,24.23
2022-10-26T07:48:45.524Z,18.97
2022-10-26T07:51:12.364Z,14.00
2022-10-26T07:53:39.177Z,18.17
2022-10-26T07:56:06.832Z,11.20
2022-10-26T07:58:33.701Z,21.30
2022-10-26T08:01:10.591Z,17.37
2022-10-26T08:03:37.847Z,14.97
2022-10-26T08:06:05.265Z,15.70
2022-10-26T08:08:32.516Z,16.00
2022-10-26T08:10:59.804Z,14.87
2022-10-26T08:13:26.886Z,15.70
2022-10-26T08:15:58.266Z,22.23
2022-10-26T08:18:25.435Z,16.20
2022-10-26T08:20:52.324Z,18.00
2022-10-26T08:23:19.116Z,14.70
2022-10-26T08:25:46.071Z,17.40
2022-10-26T08:28:14.337Z,14.03
2022-10-26T08:30:41.128Z,20.47
2022-10-26T08:33:09.961Z,15.80
2022-10-26T08:35:36.798Z,21.73
2022-10-26T08:38:03.569Z,18.80
2022-10-26T08:40:36.799Z,25.80
2022-10-26T08:43:26.409Z,24.87
2022-10-26T08:45:58.683Z,22.93
2022-10-26T08:48:33.296Z,19.70
2022-10-26T08:51:06.374Z,14.70
2022-10-26T08:53:37.218Z,18.30
2022-10-26T08:56:15.944Z,14.50
2022-10-26T08:59:07.908Z,23.90
2022-10-26T09:01:34.879Z,22.43
2022-10-26T09:04:03.545Z,24.77
2022-10-26T09:06:36.372Z,23.80
2022-10-26T09:09:12.643Z,20.30
2022-10-26T09:12:17.584Z,21.77
2022-10-26T09:15:08.803Z,21.73
2022-10-26T09:17:52.786Z,15.73
2022-10-26T09:20:43.942Z,22.37
2022-10-26T09:23:39.291Z,18.20
2022-10-26T09:26:13.385Z,13.53
2022-10-26T09:28:42.039Z,13.83
2022-10-26T09:31:15.215Z,10.50
2022-10-26T09:33:41.993Z,11.80
2022-10-26T09:36:16.018Z,15.47
2022-10-26T09:38:58.905Z,17.23
2022-10-26T09:41:37.208Z,14.73
2022-10-26T09:44:09.291Z,13.10
2022-10-26T09:46:52.647Z,20.40
2022-10-26T09:49:23.683Z,12.67
2022-10-26T09:51:51.109Z,14.13
2022-10-26T09:54:20.611Z,13.17
2022-10-26T09:56:55.726Z,12.40
2022-10-26T09:59:24.930Z,10.77
2022-10-26T10:01:51.956Z,16.33
2022-10-26T10:04:22.768Z,16.10
2022-10-26T10:07:13.020Z,12.20
2022-10-26T10:09:39.855Z,9.50
2022-10-26T10:12:18.318Z,11.80
2022-10-26T10:14:57.145Z,10.43
2022-10-26T10:17:24.863Z,11.10
2022-10-26T10:19:53.173Z,11.50
2022-10-26T10:22:24.632Z,9.70
2022-10-26T10:25:02.064Z,13.07
2022-10-26T10:27:30.571Z,16.33
2022-10-26T10:30:13.527Z,10.23
2022-10-26T10:32:41.439Z,11.43
2022-10-26T10:35:24.854Z,11.03
2022-10-26T10:37:52.580Z,14.43
2022-10-26T10:40:25.421Z,10.90
2022-10-26T10:42:55.626Z,13.57
2022-10-26T10:45:25.057Z,12.37
2022-10-26T10:48:13.448Z,15.17
2022-10-26T10:50:56.723Z,12.20
2022-10-26T10:53:34.885Z,11.13
2022-10-26T10:56:27.950Z,8.87
2022-10-26T10:59:17.534Z,10.80
2022-10-26T11:02:13.998Z,11.43
2022-10-26T11:04:59.499Z,13.60
2022-10-26T11:07:28.274Z,12.37
2022-10-26T11:09:57.326Z,16.77
2022-10-26T11:12:30.882Z,15.67
2022-10-26T11:15:03.108Z,14.70
2022-10-26T11:17:36.272Z,16.90
2022-10-26T11:20:16.921Z,19.00
2022-10-26T11:22:59.584Z,15.60
2022-10-26T11:25:31.041Z,16.10
2022-10-26T11:28:01.270Z,15.27
2022-10-26T11:30:30.799Z,19.70
2022-10-26T11:33:26.032Z,26.70
2022-10-26T11:35:59.356Z,15.43
2022-10-26T11:38:57.730Z,20.03
2022-10-26T11:41:37.274Z,22.17
2022-10-26T11:44:22.735Z,17.53
2022-10-26T11:47:15.520Z,17.50
2022-10-26T11:49:59.412Z,15.37
2022-10-26T11:52:43.481Z,17.90
2022-10-26T11:55:11.893Z,19.30
2022-10-26T11:57:39.058Z,19.13
2022-10-26T12:00:07.627Z,19.83
2022-10-26T12:05:16.617Z,14.17
2022-10-26T12:08:04.357Z,16.50
2022-10-26T12:10:35.123Z,9.90
2022-10-26T12:13:14.552Z,14.03
2022-10-26T12:16:03.534Z,13.70
2022-10-26T12:18:54.502Z,13.20
2022-10-26T12:21:28.708Z,13.23
2022-10-26T12:23:58.500Z,15.50
2022-10-26T12:26:28.123Z,12.63
2022-10-26T12:29:03.961Z,19.50
2022-10-26T12:31:36.503Z,18.27
2022-10-26T12:34:04.158Z,15.30
2022-10-26T12:36:50.581Z,20.77
2022-10-26T12:39:43.490Z,23.30
2022-10-26T12:42:10.315Z,21.73
2022-10-26T12:44:42.514Z,15.93
2022-10-26T12:47:11.119Z,14.50
2022-10-26T12:50:05.751Z,23.40
2022-10-26T12:52:51.026Z,19.20
2022-10-26T12:55:50.087Z,19.23
2022-10-26T12:58:50.398Z,14.80
2022-10-26T13:01:32.764Z,10.20
2022-10-26T13:04:08.412Z,17.47
2022-10-26T13:07:18.264Z,12.47
2022-10-26T13:09:53.970Z,19.73
2022-10-26T13:12:20.978Z,13.13
2022-10-26T13:15:07.575Z,11.53
2022-10-26T13:20:07.441Z,18.47
2022-10-26T13:22:44.629Z,16.83
2022-10-26T13:25:31.733Z,12.90
2022-10-26T13:28:03.729Z,13.83
2022-10-26T13:30:33.332Z,14.60
2022-10-26T13:33:01.616Z,11.57
2022-10-26T13:35:28.947Z,14.93
2022-10-26T13:37:57.120Z,20.80
2022-10-26T13:40:26.862Z,12.63
2022-10-26T13:43:05.536Z,12.27
2022-10-26T13:45:38.049Z,10.80
2022-10-26T13:48:12.535Z,10.93
2022-10-26T13:50:59.460Z,8.67
2022-10-26T13:54:03.328Z,21.23
2022-10-26T13:56:38.049Z,20.10
2022-10-26T13:59:13.758Z,24.30
2022-10-26T14:01:40.722Z,17.07
2022-10-26T14:04:29.232Z,18.30
2022-10-26T14:06:56.366Z,23.03
2022-10-26T14:09:23.948Z,27.70
2022-10-26T14:11:54.374Z,19.83
2022-10-26T14:14:28.036Z,17.07
2022-10-26T14:16:55.954Z,19.53
2022-10-26T14:19:31.522Z,18.87
2022-10-26T14:21:58.921Z,18.20
2022-10-26T14:24:46.653Z,18.37
2022-10-26T14:27:18.319Z,18.00
2022-10-26T14:29:54.160Z,26.93
2022-10-26T14:32:33.627Z,16.87
2022-10-26T14:35:00.513Z,18.90
2022-10-26T14:37:55.146Z,20.70
2022-10-26T14:40:28.982Z,21.37
2022-10-26T14:43:01.098Z,13.77
2022-10-26T14:45:47.701Z,22.97
2022-10-26T14:48:35.617Z,17.30
2022-10-26T14:51:17.170Z,16.80
2022-10-26T14:53:52.410Z,21.50
2022-10-26T14:56:35.915Z,12.07
2022-10-26T14:59:27.714Z,21.20
2022-10-26T15:02:17.175Z,16.80
2022-10-26T15:05:02.171Z,17.43
2022-10-26T15:07:37.529Z,13.83
2022-10-26T15:10:05.730Z,18.80
2022-10-26T15:12:37.957Z,24.43
2022-10-26T15:15:14.757Z,16.40
2022-10-26T15:17:48.464Z,21.40
2022-10-26T15:20:19.342Z,29.23
2022-10-26T15:22:53.684Z,17.63
2022-10-26T15:25:27.931Z,23.60
2022-10-26T15:27:55.210Z,16.00
2022-10-26T15:30:27.780Z,19.83
2022-10-26T15:32:55.871Z,20.23
2022-10-26T15:35:31.769Z,24.80
2022-10-26T15:38:01.135Z,15.20
2022-10-26T15:40:30.664Z,27.37
2022-10-26T15:42:59.656Z,17.27
2022-10-26T15:45:33.268Z,19.73
2022-10-26T15:48:15.709Z,18.73
2022-10-26T15:50:42.647Z,12.53
2022-10-26T15:53:18.042Z,30.73
2022-10-26T15:55:44.844Z,16.37
2022-10-26T15:58:11.755Z,16.93
2022-10-26T16:00:38.647Z,29.63
2022-10-26T16:03:05.480Z,15.83
2022-10-26T16:07:59.263Z,16.53
2022-10-26T16:10:26.170Z,17.70
2022-10-26T16:12:53.375Z,19.17
2022-10-26T16:15:25.030Z,34.00
2022-10-26T16:17:52.370Z,21.63
2022-10-26T16:20:25.201Z,19.40
2022-10-26T16:22:53.196Z,23.17
2022-10-26T16:25:24.843Z,13.33
2022-10-26T16:27:53.245Z,18.77
2022-10-26T16:30:21.033Z,22.70
2022-10-26T16:32:48.533Z,14.87
2022-10-26T16:35:16.309Z,22.03
2022-10-26T16:37:43.128Z,19.93
2022-10-26T16:40:10.414Z,14.57
2022-10-26T16:42:37.274Z,13.00
2022-10-26T16:45:04.825Z,12.33
2022-10-26T16:47:35.620Z,15.40
2022-10-26T16:50:03.732Z,16.57
2022-10-26T16:52:30.597Z,20.13
2022-10-26T16:54:57.450Z,13.00
2022-10-26T16:57:24.230Z,16.83
2022-10-26T16:59:51.127Z,21.30
2022-10-26T17:02:18.208Z,16.27
2022-10-26T17:04:45.065Z,16.00
2022-10-26T17:07:11.959Z,15.90
2022-10-26T17:09:38.987Z,18.40
2022-10-26T17:12:06.228Z,15.63
2022-10-26T17:14:33.156Z,15.87
2022-10-26T17:16:59.988Z,19.63
2022-10-26T17:19:26.899Z,21.80
2022-10-26T17:21:53.749Z,21.47
2022-10-26T17:24:21.347Z,14.43
2022-10-26T17:26:48.195Z,28.30
2022-10-26T17:29:15.145Z,17.80
2022-10-26T17:31:42.009Z,20.90
2022-10-26T17:34:08.906Z,14.83
2022-10-26T17:36:35.799Z,16.73
2022-10-26T17:39:02.706Z,20.40
2022-10-26T17:41:29.551Z,17.03
2022-10-26T17:43:56.322Z,25.47
2022-10-26T17:46:26.094Z,17.23
2022-10-26T17:48:58.094Z,20.30
2022-10-26T17:51:26.524Z,23.03
2022-10-26T17:53:54.076Z,20.60
2022-10-26T17:56:26.730Z,19.23
2022-10-26T17:59:05.429Z,22.63
2022-10-26T18:01:33.065Z,13.43
2022-10-26T18:04:00.501Z,18.43
2022-10-26T18:06:27.502Z,14.90
2022-10-26T18:08:56.690Z,15.27
2022-10-26T18:11:27.307Z,17.60
2022-10-26T18:13:58.352Z,25.10
2022-10-26T18:16:26.660Z,27.00
2022-10-26T18:19:00.684Z,13.63
2022-10-26T18:21:29.883Z,17.10
2022-10-26T18:23:56.729Z,21.63
2022-10-26T18:26:28.893Z,20.45
2022-10-26T18:28:56.615Z,19.07
2022-10-26T21:01:13.927Z,28.00
2022-10-26T21:03:41.097Z,25.67
2022-10-26T21:06:11.256Z,36.30
2022-10-26T21:08:38.171Z,33.33
2022-10-26T21:11:05.099Z,33.20
2022-10-26T21:13:31.905Z,22.53
2022-10-26T21:15:58.711Z,23.27
2022-10-26T21:18:25.453Z,31.80
2022-10-26T21:20:52.297Z,30.77
2022-10-26T21:23:19.195Z,19.50
2022-10-26T21:25:45.980Z,40.20
2022-10-26T21:28:12.744Z,22.90
2022-10-26T21:30:39.693Z,29.03
2022-10-26T21:33:06.621Z,41.87
2022-10-26T21:35:33.510Z,24.40
2022-10-26T21:38:00.386Z,25.67
2022-10-26T21:40:27.303Z,22.37
2022-10-26T21:42:54.117Z,32.20
2022-10-26T21:45:20.893Z,33.20
2022-10-26T21:47:52.292Z,35.90
2022-10-26T21:50:19.668Z,27.52
2022-10-26T21:52:46.487Z,29.60
2022-10-26T21:55:13.269Z,33.50
2022-10-26T21:57:40.346Z,29.57
2022-10-26T22:00:08.104Z,23.07
2022-10-26T22:02:35.047Z,29.10
2022-10-26T22:05:01.875Z,32.83
2022-10-26T22:07:28.634Z,24.60
2022-10-26T22:10:10.263Z,32.60
2022-10-26T22:12:37.713Z,31.40
2022-10-26T22:15:05.145Z,28.27
2022-10-26T22:17:31.901Z,26.67
2022-10-26T22:19:58.668Z,29.48
2022-10-26T22:22:25.419Z,24.43
2022-10-26T22:24:52.189Z,21.52
2022-10-26T22:27:19.031Z,29.23
2022-10-26T22:29:45.950Z,27.00
2022-10-26T22:32:12.720Z,30.23
2022-10-26T22:34:39.882Z,32.30
2022-10-26T22:37:06.670Z,27.38
2022-10-26T22:39:33.425Z,26.80
2022-10-26T22:42:00.199Z,30.58
2022-10-26T22:44:26.978Z,30.97
2022-10-26T22:46:53.845Z,32.00
2022-10-26T22:49:20.694Z,28.37
2022-10-26T22:51:47.473Z,32.13
2022-10-26T22:54:14.423Z,25.37
2022-10-26T22:56:41.411Z,24.80
2022-10-26T22:59:08.301Z,35.90
2022-10-26T23:01:41.749Z,24.00
2022-10-26T23:04:12.589Z,22.98
2022-10-26T23:06:40.061Z,27.60
2022-10-26T23:09:07.105Z,32.30
2022-10-26T23:11:34.045Z,31.42
2022-10-26T23:14:02.740Z,24.33
2022-10-26T23:16:30.703Z,30.03
2022-10-26T23:18:58.609Z,31.73
2022-10-26T23:23:52.521Z,22.60
2022-10-26T23:26:21.469Z,32.20
2022-10-26T23:28:48.916Z,35.65
2022-10-26T23:31:18.562Z,41.33
2022-10-26T23:33:45.620Z,32.75
2022-10-26T23:36:12.951Z,39.37
2022-10-26T23:38:39.712Z,36.28
2022-10-26T23:41:09.423Z,32.75
2022-10-26T23:43:38.979Z,37.67
2022-10-26T23:46:05.932Z,39.42
2022-10-26T23:48:32.945Z,36.53
2022-10-26T23:50:59.795Z,38.87
2022-10-26T23:53:26.758Z,30.43
2022-10-26T23:55:53.635Z,32.65
2022-10-26T23:58:20.546Z,36.33
